Lone Star Executive Airport
KCXO : now visible

Airfield :











YOU CAN JOIN US ON...

 
LOGIN :

Register | Disclaimer

   EN    FR    IT 

 









Legend :    VFR   Marginal VFR   IFR   Intensive IFR   Very Intensive IFR
Visi :
Ceiling :
>= 8 km
>= 3000ft
5 to 8 km
1000 to 3000 ft
1500m to 5 km
500 to 1000 ft
800 to 1500m
200 to 500 ft
< 800m
< 200 ft
Symbols :   Thunderstorms  Fog  Heavy snow  Heavy precipitations  Wind > 20 kt







- Airport Elevation : 245 ft


KCXO - Lone Star Executive

CURRENT METAR :
  • 210553Z AUTO 13003KT 10SM CLR 26/24 A2995 RMK AO2 SLP136 T02560244 10311 20256 403560228 58002

EXPIRED METARs :
  • 210453Z AUTO 15004KT 10SM CLR 27/24 A2995 RMK AO2 SLP138 T02670244
  • 210353Z AUTO 15006KT 10SM CLR 27/25 A2995 RMK AO2 SLP139 T02720250

TAF KCXO
Valid from the 21 at 06:00 until the 22 at 06:00 UTC


210520Z 2106/2206 15004KT P6SM FEW015 BKN250
FM210900 VRB02KT 4SM BR FEW015 SCT250
TEMPO 2110/2112 2SM BR
FM211500 19006KT P6SM SCT035
FM211900 16009KT P6SM VCTS SCT040CB BKN250
PROB30 2120/2124 VRB10G28KT TSRA BKN040CB
FM220100 18005KT P6SM SCT250
KZHU FIR / North America



MET'MAP, your aeronautical weather chart ! - Copyright ORBIFLY December 2007 - Disclaimer

ORBIFLY MET'MAP TEAM :

Programming & Development : Alexandra Zaïnal
Concept & Development : Baudouin d'Aumeries
Co-Development & Prog : Marc-Olivier Méhu
Technical & hardware support : Manuel Goepfert

Contact : metmap@orbifly.com




SOURCES & CREDITS :

   NOAA       Earth
Advisory